createdAt,value
2018-12-16T00:01:47.048Z,12.50
2018-12-16T00:04:18.101Z,12.85
2018-12-16T00:06:49.260Z,12.40
2018-12-16T00:09:18.183Z,12.65
2018-12-16T00:11:47.079Z,13.15
2018-12-16T00:14:16.003Z,13.08
2018-12-16T00:16:45.007Z,12.53
2018-12-16T00:19:14.025Z,13.28
2018-12-16T00:21:43.049Z,12.65
2018-12-16T00:24:12.104Z,12.10
2018-12-16T00:26:52.469Z,13.32
2018-12-16T00:29:21.685Z,12.60
2018-12-16T00:31:50.542Z,13.50
2018-12-16T00:34:19.513Z,13.15
2018-12-16T00:36:48.463Z,13.20
2018-12-16T00:39:17.511Z,12.95
2018-12-16T00:41:46.478Z,13.22
2018-12-16T00:44:15.433Z,13.53
2018-12-16T00:46:44.372Z,13.50
2018-12-16T00:49:13.277Z,13.05
2018-12-16T00:51:48.872Z,13.20
2018-12-16T00:54:17.846Z,13.10
2018-12-16T00:56:46.811Z,13.50
2018-12-16T00:59:15.739Z,13.03
2018-12-16T01:01:44.785Z,12.88
2018-12-16T01:04:14.766Z,12.73
2018-12-16T01:06:43.859Z,13.30
2018-12-16T01:09:12.780Z,13.55
2018-12-16T01:11:41.758Z,13.95
2018-12-16T01:14:11.007Z,13.03
2018-12-16T01:16:39.891Z,13.90
2018-12-16T01:19:08.991Z,13.32
2018-12-16T01:21:38.071Z,13.70
2018-12-16T01:24:07.121Z,13.77
2018-12-16T01:26:36.067Z,13.62
2018-12-16T01:29:05.132Z,13.58
2018-12-16T01:31:33.996Z,14.53
2018-12-16T01:34:03.269Z,13.90
2018-12-16T01:36:32.235Z,14.00
2018-12-16T01:39:01.153Z,14.28
2018-12-16T01:41:31.943Z,14.13
2018-12-16T01:44:00.916Z,14.18
2018-12-16T01:46:29.802Z,14.33
2018-12-16T01:48:58.764Z,13.93
2018-12-16T01:51:27.708Z,15.63
2018-12-16T01:53:56.629Z,14.80
2018-12-16T01:56:25.555Z,14.30
2018-12-16T01:58:54.557Z,14.47
2018-12-16T02:01:23.506Z,13.78
2018-12-16T02:03:52.435Z,14.05
2018-12-16T02:06:21.439Z,14.95
2018-12-16T02:08:50.433Z,14.30
2018-12-16T02:11:19.621Z,14.35
2018-12-16T02:13:48.596Z,14.85
2018-12-16T02:16:17.502Z,14.20
2018-12-16T02:18:46.408Z,14.40
2018-12-16T02:21:15.304Z,14.90
2018-12-16T02:23:44.263Z,14.10
2018-12-16T02:26:13.167Z,14.53
2018-12-16T02:28:42.182Z,13.90
2018-12-16T02:31:11.193Z,14.73
2018-12-16T02:33:40.065Z,14.60
2018-12-16T02:36:08.962Z,14.33
2018-12-16T02:38:37.967Z,14.38
2018-12-16T02:41:07.988Z,14.60
2018-12-16T02:43:36.923Z,14.83
2018-12-16T02:46:05.917Z,14.60
2018-12-16T02:48:34.815Z,14.23
2018-12-16T02:51:04.788Z,13.80
2018-12-16T02:53:33.862Z,15.60
2018-12-16T02:56:02.790Z,14.47
2018-12-16T02:58:31.732Z,14.33
2018-12-16T03:01:00.867Z,15.40
2018-12-16T03:03:30.658Z,13.93
2018-12-16T03:05:59.591Z,14.90
2018-12-16T03:08:28.529Z,14.65
2018-12-16T03:10:57.436Z,14.35
2018-12-16T03:13:26.354Z,15.32
2018-12-16T03:15:55.295Z,15.25
2018-12-16T03:18:24.337Z,15.35
2018-12-16T03:20:53.376Z,14.65
2018-12-16T03:23:22.413Z,15.38
2018-12-16T03:25:51.367Z,14.98
2018-12-16T03:28:20.306Z,14.63
2018-12-16T03:30:49.870Z,15.43
2018-12-16T03:33:18.813Z,15.43
2018-12-16T03:35:47.768Z,15.90
2018-12-16T03:38:16.661Z,15.33
2018-12-16T03:40:45.702Z,14.68
2018-12-16T03:43:14.745Z,15.43
2018-12-16T03:45:43.833Z,16.10
2018-12-16T03:48:12.813Z,15.58
2018-12-16T03:50:41.733Z,15.48
2018-12-16T03:53:10.801Z,15.45
2018-12-16T03:55:39.696Z,15.88
2018-12-16T03:58:08.650Z,15.78
2018-12-16T04:00:37.838Z,16.02
2018-12-16T04:03:06.734Z,15.28
2018-12-16T04:05:35.646Z,15.55
2018-12-16T04:08:04.615Z,15.30
2018-12-16T04:10:33.587Z,15.97
2018-12-16T04:13:02.545Z,15.83
2018-12-16T04:15:31.629Z,16.23
2018-12-16T04:18:00.524Z,15.68
2018-12-16T04:20:29.688Z,16.50
2018-12-16T04:22:58.713Z,16.50
2018-12-16T04:25:27.769Z,16.60
2018-12-16T04:27:56.913Z,16.25
2018-12-16T04:30:25.865Z,16.80
2018-12-16T04:32:54.789Z,15.85
2018-12-16T04:35:23.952Z,16.10
2018-12-16T04:37:52.787Z,15.60
2018-12-16T04:40:21.725Z,15.75
2018-12-16T04:42:50.684Z,15.75
2018-12-16T04:45:19.585Z,15.30
2018-12-16T04:47:49.186Z,16.10
2018-12-16T04:50:18.076Z,16.93
2018-12-16T04:52:47.010Z,15.72
2018-12-16T04:55:15.996Z,16.97
2018-12-16T04:57:44.921Z,16.37
2018-12-16T05:00:13.848Z,15.65
2018-12-16T05:02:42.765Z,16.65
2018-12-16T05:05:11.644Z,16.77
2018-12-16T05:07:40.639Z,17.15
2018-12-16T05:10:20.859Z,17.55
2018-12-16T05:12:49.955Z,18.25
2018-12-16T05:15:18.901Z,17.48
2018-12-16T05:17:47.817Z,18.57
2018-12-16T05:20:16.946Z,19.00
2018-12-16T05:22:45.841Z,20.55
2018-12-16T05:25:15.710Z,19.15
2018-12-16T05:27:44.643Z,20.23
2018-12-16T05:30:13.556Z,20.17
2018-12-16T05:32:42.491Z,20.27
2018-12-16T05:35:11.569Z,20.10
2018-12-16T05:37:40.441Z,21.55
2018-12-16T05:40:09.948Z,20.60
2018-12-16T05:42:39.016Z,20.80
2018-12-16T05:45:08.341Z,21.30
2018-12-16T05:47:37.871Z,21.90
2018-12-16T05:50:07.424Z,20.75
2018-12-16T05:52:36.373Z,21.02
2018-12-16T05:55:06.264Z,19.82
2018-12-16T05:57:35.234Z,21.33
2018-12-16T06:00:05.088Z,20.80
2018-12-16T06:02:34.232Z,20.95
2018-12-16T06:05:03.416Z,21.57
2018-12-16T06:07:32.355Z,21.45
2018-12-16T06:10:01.416Z,20.92
2018-12-16T06:12:30.337Z,21.23
2018-12-16T06:14:59.324Z,20.88
2018-12-16T06:17:28.412Z,21.65
2018-12-16T06:19:57.395Z,21.10
2018-12-16T06:22:26.435Z,20.80
2018-12-16T06:24:55.368Z,21.65
2018-12-16T06:27:24.266Z,20.57
2018-12-16T06:29:53.588Z,22.15
2018-12-16T06:32:22.653Z,21.85
2018-12-16T06:34:51.610Z,21.82
2018-12-16T06:37:20.573Z,21.60
2018-12-16T06:39:49.951Z,22.37
2018-12-16T06:42:19.068Z,21.85
2018-12-16T06:44:47.883Z,23.02
2018-12-16T06:47:16.832Z,21.50
2018-12-16T06:49:45.812Z,21.95
2018-12-16T06:52:14.734Z,22.48
2018-12-16T06:54:43.735Z,22.87
2018-12-16T06:57:12.618Z,22.62
2018-12-16T06:59:42.149Z,22.67
2018-12-16T07:02:11.094Z,22.20
2018-12-16T07:04:40.465Z,22.77
2018-12-16T07:07:09.508Z,21.87
2018-12-16T07:09:38.456Z,23.00
2018-12-16T07:12:07.358Z,22.07
2018-12-16T07:14:36.342Z,22.50
2018-12-16T07:17:05.359Z,22.63
2018-12-16T07:19:34.391Z,22.30
2018-12-16T07:22:03.344Z,23.18
2018-12-16T07:24:32.461Z,23.65
2018-12-16T07:27:01.413Z,22.85
2018-12-16T07:29:31.084Z,23.73
2018-12-16T07:32:01.361Z,23.07
2018-12-16T07:34:30.608Z,23.62
2018-12-16T07:36:59.883Z,23.98
2018-12-16T07:39:28.870Z,23.95
2018-12-16T07:41:57.892Z,23.77
2018-12-16T07:44:26.856Z,24.02
2018-12-16T07:46:55.742Z,23.35
2018-12-16T07:49:24.926Z,23.87
2018-12-16T07:51:53.855Z,23.00
2018-12-16T07:54:24.841Z,24.57
2018-12-16T07:56:53.792Z,22.42
2018-12-16T07:59:22.746Z,22.40
2018-12-16T08:01:51.684Z,23.07
2018-12-16T08:04:20.697Z,23.07
2018-12-16T08:06:49.949Z,23.32
2018-12-16T08:09:18.784Z,22.32
2018-12-16T08:11:47.744Z,22.60
2018-12-16T08:14:16.731Z,22.77
2018-12-16T08:16:45.684Z,23.62
2018-12-16T08:19:14.801Z,22.35
2018-12-16T08:21:43.710Z,22.75
2018-12-16T08:24:13.247Z,22.40
2018-12-16T08:26:42.193Z,22.62
2018-12-16T08:29:12.267Z,24.30
2018-12-16T08:31:41.298Z,23.25
2018-12-16T08:34:10.379Z,23.22
2018-12-16T08:36:39.353Z,23.30
2018-12-16T08:39:08.498Z,23.00
2018-12-16T08:41:38.461Z,23.10
2018-12-16T08:44:07.541Z,22.77
2018-12-16T08:46:37.535Z,23.60
2018-12-16T08:49:06.436Z,23.02
2018-12-16T08:51:35.472Z,23.50
2018-12-16T08:54:04.706Z,24.07
2018-12-16T08:56:33.646Z,22.90
2018-12-16T08:59:02.535Z,23.70
2018-12-16T09:01:31.452Z,23.07
2018-12-16T09:04:00.671Z,23.92
2018-12-16T09:06:29.609Z,23.32
2018-12-16T09:08:59.027Z,23.80
2018-12-16T09:11:28.574Z,24.02
2018-12-16T09:18:55.727Z,23.83
2018-12-16T09:21:23.569Z,24.77
2018-12-16T09:23:51.450Z,24.35
2018-12-16T09:26:19.347Z,24.77
2018-12-16T09:28:47.537Z,23.70
2018-12-16T09:31:15.474Z,24.30
2018-12-16T11:33:59.607Z,21.37
2018-12-16T11:36:27.455Z,28.23
2018-12-16T11:38:55.459Z,28.55
2018-12-16T11:41:23.344Z,28.80
2018-12-16T11:43:51.192Z,27.90
2018-12-16T11:46:19.062Z,27.75
2018-12-16T11:48:46.932Z,27.65
2018-12-16T11:51:14.882Z,28.62
2018-12-16T11:53:43.040Z,27.35
2018-12-16T11:56:11.008Z,27.45
2018-12-16T11:58:38.917Z,28.73
2018-12-16T12:01:06.822Z,28.83
2018-12-16T12:03:34.687Z,28.45
2018-12-16T12:06:04.675Z,28.20
2018-12-16T12:08:32.675Z,29.55
2018-12-16T12:11:00.541Z,28.02
2018-12-16T12:13:28.554Z,28.15
2018-12-16T12:15:56.548Z,28.65
2018-12-16T12:18:24.464Z,27.60
2018-12-16T12:20:52.462Z,28.35
2018-12-16T12:23:20.292Z,27.70
2018-12-16T12:25:48.171Z,28.47
2018-12-16T12:28:16.269Z,27.65
2018-12-16T12:30:44.162Z,27.87
2018-12-16T12:33:12.098Z,28.02
2018-12-16T12:35:39.884Z,27.65
2018-12-16T12:38:07.871Z,27.48
2018-12-16T12:40:35.768Z,28.17
2018-12-16T12:43:03.826Z,28.73
2018-12-16T12:45:31.704Z,27.98
2018-12-16T12:47:59.754Z,29.15
2018-12-16T12:50:27.693Z,29.92
2018-12-16T12:52:55.531Z,29.72
2018-12-16T12:55:26.918Z,27.82
2018-12-16T12:57:53.755Z,28.25
2018-12-16T13:00:21.626Z,29.10
2018-12-16T13:02:49.567Z,29.05
2018-12-16T13:05:17.691Z,29.27
2018-12-16T13:07:45.674Z,31.10
2018-12-16T13:10:13.661Z,31.07
2018-12-16T13:12:41.518Z,32.78
2018-12-16T13:15:09.504Z,31.60
2018-12-16T13:17:37.447Z,30.88
2018-12-16T13:20:05.806Z,31.68
2018-12-16T13:22:33.753Z,31.00
2018-12-16T13:25:07.319Z,31.50
2018-12-16T13:27:35.253Z,31.45
2018-12-16T13:30:03.328Z,31.13
2018-12-16T13:32:31.262Z,33.50
2018-12-16T13:34:59.196Z,33.60
2018-12-16T13:37:27.071Z,33.00
2018-12-16T13:39:54.992Z,33.80
2018-12-16T13:42:22.880Z,31.85
2018-12-16T13:44:50.851Z,33.18
2018-12-16T13:47:18.762Z,33.33
2018-12-16T13:49:46.627Z,32.90
2018-12-16T13:52:14.507Z,33.10
2018-12-16T13:54:42.469Z,34.85
2018-12-16T13:57:10.448Z,33.63
2018-12-16T13:59:38.361Z,33.53
2018-12-16T14:02:06.282Z,34.27
2018-12-16T14:04:34.258Z,34.45
2018-12-16T14:07:02.153Z,34.05
2018-12-16T14:09:32.351Z,34.75
2018-12-16T14:12:00.680Z,34.75
2018-12-16T14:14:28.575Z,34.35
2018-12-16T14:16:56.532Z,34.13
2018-12-16T14:19:24.457Z,33.92
2018-12-16T14:21:52.467Z,34.67
2018-12-16T14:24:20.301Z,35.43
2018-12-16T14:26:48.399Z,36.25
2018-12-16T14:29:16.294Z,35.15
2018-12-16T14:31:44.283Z,35.73
2018-12-16T14:34:12.140Z,35.13
2018-12-16T14:36:39.993Z,35.40
2018-12-16T14:39:08.143Z,36.53
2018-12-16T14:41:38.084Z,35.45
2018-12-16T14:44:05.940Z,35.47
2018-12-16T14:46:33.824Z,34.92
2018-12-16T14:49:01.721Z,34.70
2018-12-16T14:51:29.595Z,33.70
2018-12-16T14:53:57.428Z,34.58
2018-12-16T14:56:25.327Z,34.58
2018-12-16T14:58:53.289Z,33.78
2018-12-16T15:01:21.224Z,34.53
2018-12-16T15:03:49.039Z,35.08
2018-12-16T15:06:16.981Z,34.43
2018-12-16T15:08:51.451Z,34.05
2018-12-16T15:11:19.508Z,34.38
2018-12-16T15:13:48.090Z,36.17
2018-12-16T15:16:16.152Z,35.37
2018-12-16T15:18:44.262Z,35.55
2018-12-16T15:21:12.202Z,34.25
2018-12-16T15:23:40.110Z,34.03
2018-12-16T15:26:07.997Z,34.00
2018-12-16T15:28:35.968Z,33.92
2018-12-16T15:31:03.845Z,33.40
2018-12-16T15:33:31.667Z,33.53
2018-12-16T15:35:59.620Z,33.02
2018-12-16T15:38:27.511Z,34.03
2018-12-16T15:40:55.458Z,33.63
2018-12-16T15:43:23.360Z,34.23
2018-12-16T15:45:51.236Z,33.83
2018-12-16T15:48:19.125Z,34.60
2018-12-16T15:50:47.858Z,33.83
2018-12-16T15:53:15.871Z,33.33
2018-12-16T15:55:43.807Z,34.13
2018-12-16T15:58:11.730Z,34.95
2018-12-16T16:00:39.665Z,36.13
2018-12-16T16:03:07.492Z,34.88
2018-12-16T16:05:35.729Z,34.73
2018-12-16T16:08:03.785Z,35.33
2018-12-16T16:10:31.652Z,34.85
2018-12-16T16:13:00.420Z,34.27
2018-12-16T16:15:28.243Z,33.75
2018-12-16T16:17:56.206Z,33.20
2018-12-16T16:20:24.160Z,31.97
2018-12-16T16:22:52.122Z,33.00
2018-12-16T16:25:20.055Z,33.38
2018-12-16T16:27:47.911Z,32.50
2018-12-16T16:30:15.777Z,31.75
2018-12-16T16:32:43.647Z,30.85
2018-12-16T16:35:11.641Z,32.58
2018-12-16T16:37:40.106Z,33.95
2018-12-16T16:40:08.294Z,34.45
2018-12-16T16:42:36.254Z,34.15
2018-12-16T16:45:04.801Z,35.80
2018-12-16T16:47:33.804Z,34.65
2018-12-16T16:50:01.655Z,33.78
2018-12-16T16:52:29.585Z,34.55
2018-12-16T16:54:57.477Z,35.83
2018-12-16T16:57:25.353Z,35.23
2018-12-16T16:59:53.335Z,35.05
2018-12-16T17:02:21.276Z,34.25
2018-12-16T17:04:49.150Z,34.30
2018-12-16T17:07:17.182Z,34.55
2018-12-16T17:09:45.005Z,34.43
2018-12-16T17:12:13.199Z,35.00
2018-12-16T17:14:41.326Z,35.10
2018-12-16T17:17:09.336Z,34.83
2018-12-16T17:19:37.259Z,36.77
2018-12-16T17:22:05.730Z,35.63
2018-12-16T17:24:33.713Z,34.25
2018-12-16T17:27:01.686Z,34.23
2018-12-16T17:29:29.724Z,33.63
2018-12-16T17:31:57.643Z,34.57
2018-12-16T17:34:25.592Z,34.23
2018-12-16T17:36:53.786Z,35.85
2018-12-16T17:39:21.719Z,34.60
2018-12-16T17:41:49.570Z,35.77
2018-12-16T17:44:17.538Z,35.30
2018-12-16T17:46:45.445Z,35.58
2018-12-16T17:49:13.343Z,36.38
2018-12-16T17:51:41.207Z,37.20
2018-12-16T17:54:09.738Z,36.00
2018-12-16T17:56:37.667Z,36.68
2018-12-16T17:59:05.511Z,36.05
2018-12-16T18:01:33.563Z,37.40
2018-12-16T18:04:01.363Z,38.15
2018-12-16T18:06:29.235Z,39.15
2018-12-16T18:08:57.326Z,39.70
2018-12-16T18:11:25.261Z,38.65
2018-12-16T18:13:53.128Z,39.08
2018-12-16T18:16:21.073Z,38.73
2018-12-16T18:18:48.989Z,38.00
2018-12-16T18:21:17.056Z,37.40
2018-12-16T18:23:45.044Z,37.80
2018-12-16T18:26:12.988Z,39.03
2018-12-16T18:28:41.103Z,39.40
2018-12-16T18:31:10.001Z,39.67
2018-12-16T18:33:38.105Z,38.88
2018-12-16T18:36:06.333Z,38.13
2018-12-16T18:38:34.386Z,38.98
2018-12-16T18:41:02.295Z,39.67
2018-12-16T18:43:30.154Z,41.33
2018-12-16T18:45:58.123Z,41.13
2018-12-16T18:48:26.074Z,41.00
2018-12-16T18:50:54.091Z,39.40
2018-12-16T18:53:22.123Z,40.15
2018-12-16T18:55:49.981Z,39.73
2018-12-16T18:58:17.842Z,40.98
2018-12-16T19:00:45.691Z,38.53
2018-12-16T19:03:13.580Z,40.28
2018-12-16T19:05:41.498Z,39.15
2018-12-16T19:08:09.482Z,41.53
2018-12-16T19:10:37.357Z,39.73
2018-12-16T19:13:05.397Z,41.73
2018-12-16T19:15:33.322Z,39.08
2018-12-16T19:18:01.174Z,40.65
2018-12-16T19:20:30.383Z,37.60
2018-12-16T19:22:58.302Z,38.25
2018-12-16T19:25:26.324Z,38.13
2018-12-16T19:27:54.208Z,38.65
2018-12-16T19:30:22.118Z,39.70
2018-12-16T19:32:49.982Z,40.83
2018-12-16T19:35:17.887Z,40.30
2018-12-16T19:37:46.518Z,38.35
2018-12-16T19:40:14.647Z,39.08
2018-12-16T19:42:42.659Z,38.00
2018-12-16T19:45:10.555Z,38.42
2018-12-16T19:47:38.440Z,40.20
2018-12-16T19:50:06.852Z,40.55
2018-12-16T19:52:34.869Z,40.05
2018-12-16T19:55:03.238Z,40.58
2018-12-16T20:00:06.085Z,41.02
2018-12-16T20:02:34.156Z,40.40
2018-12-16T20:05:03.999Z,41.90
2018-12-16T20:07:33.649Z,42.62
2018-12-16T20:10:01.577Z,42.93
2018-12-16T20:12:30.562Z,41.13
2018-12-16T20:14:58.484Z,42.38
2018-12-16T20:17:26.456Z,42.45
2018-12-16T20:19:54.436Z,41.60
2018-12-16T20:22:22.397Z,41.50
2018-12-16T20:24:50.215Z,41.15
2018-12-16T20:27:19.563Z,41.90
2018-12-16T20:29:47.673Z,41.88
2018-12-16T20:32:15.646Z,41.50
2018-12-16T20:34:43.519Z,42.67
2018-12-16T20:37:11.535Z,42.83
2018-12-16T20:39:39.560Z,41.98
2018-12-16T20:42:08.153Z,42.27
2018-12-16T20:44:36.203Z,42.23
2018-12-16T20:47:04.258Z,40.43
2018-12-16T20:49:32.392Z,41.55
2018-12-16T20:52:00.420Z,43.03
2018-12-16T20:54:28.265Z,42.45
2018-12-16T20:56:56.243Z,43.28
2018-12-16T20:59:24.460Z,42.75
2018-12-16T21:01:52.367Z,40.52
2018-12-16T21:04:20.304Z,42.48
2018-12-16T21:06:48.220Z,43.30
2018-12-16T21:09:16.351Z,42.00
2018-12-16T21:11:49.948Z,41.60
2018-12-16T21:14:23.353Z,40.90
2018-12-16T21:16:56.560Z,41.95
2018-12-16T21:19:24.980Z,41.28
2018-12-16T21:21:52.865Z,43.15
2018-12-16T21:24:20.825Z,42.15
2018-12-16T21:26:49.031Z,42.70
2018-12-16T21:29:17.171Z,43.73
2018-12-16T21:31:45.010Z,43.93
2018-12-16T21:34:12.960Z,41.73
2018-12-16T21:36:40.969Z,44.88
2018-12-16T21:39:08.919Z,44.03
2018-12-16T21:41:37.255Z,45.15
2018-12-16T21:44:05.163Z,46.28
2018-12-16T21:46:33.111Z,43.15
2018-12-16T21:49:00.997Z,43.65
2018-12-16T21:51:28.920Z,42.08
2018-12-16T21:53:56.827Z,42.73
2018-12-16T21:56:24.684Z,44.97
2018-12-16T21:58:52.695Z,42.58
2018-12-16T22:01:20.626Z,48.02
2018-12-16T22:03:48.554Z,48.17
2018-12-16T22:06:16.544Z,48.25
2018-12-16T22:08:45.049Z,46.80
2018-12-16T22:11:13.300Z,49.03
2018-12-16T22:13:41.269Z,43.95
2018-12-16T22:16:09.179Z,45.03
2018-12-16T22:18:37.205Z,45.57
2018-12-16T22:21:05.955Z,42.62
2018-12-16T22:23:33.860Z,43.63
2018-12-16T22:26:01.787Z,43.87
2018-12-16T22:28:29.653Z,43.70
2018-12-16T22:31:01.830Z,43.10
2018-12-16T22:33:29.923Z,41.68
2018-12-16T22:35:57.815Z,43.50
2018-12-16T22:38:25.856Z,44.27
2018-12-16T22:40:53.749Z,43.40
2018-12-16T22:43:21.604Z,44.13
2018-12-16T22:45:49.739Z,44.98
2018-12-16T22:48:17.595Z,45.63
2018-12-16T22:50:45.473Z,45.85
2018-12-16T22:53:13.315Z,46.55
2018-12-16T22:55:41.195Z,45.33
2018-12-16T22:58:09.148Z,46.33
2018-12-16T23:00:41.383Z,47.45
2018-12-16T23:03:11.273Z,47.33
2018-12-16T23:05:39.126Z,44.20
2018-12-16T23:08:07.053Z,44.83
2018-12-16T23:10:34.977Z,45.60
2018-12-16T23:13:02.920Z,43.25
2018-12-16T23:15:30.876Z,45.70
2018-12-16T23:17:58.890Z,45.85
2018-12-16T23:20:28.939Z,44.75
2018-12-16T23:22:57.087Z,46.02
2018-12-16T23:25:25.096Z,46.50
2018-12-16T23:27:54.289Z,46.83
2018-12-16T23:30:22.353Z,46.55
2018-12-16T23:32:50.321Z,46.83
2018-12-16T23:35:18.316Z,46.63
2018-12-16T23:37:46.177Z,48.08
2018-12-16T23:40:14.123Z,49.20
2018-12-16T23:42:44.083Z,48.65
2018-12-16T23:45:12.072Z,47.62
2018-12-16T23:47:39.926Z,46.75
2018-12-16T23:50:08.001Z,47.27
2018-12-16T23:52:35.877Z,47.73
2018-12-16T23:55:03.884Z,47.05
2018-12-16T23:57:31.729Z,47.13
2018-12-16T23:59:59.783Z,49.30
